createdAt,value
2023-03-31T00:00:35.883Z,100269.44
2023-03-31T00:03:11.101Z,100266.91
2023-03-31T00:05:41.958Z,100277.34
2023-03-31T00:08:14.903Z,100276.50
2023-03-31T00:10:49.325Z,100263.50
2023-03-31T00:13:20.079Z,100254.00
2023-03-31T00:15:51.586Z,100267.00
2023-03-31T00:18:26.691Z,100266.22
2023-03-31T00:20:59.441Z,100261.84
2023-03-31T00:23:31.100Z,100269.72
2023-03-31T00:26:01.683Z,100273.22
2023-03-31T00:28:32.317Z,100268.88
2023-03-31T00:31:06.246Z,100276.66
2023-03-31T00:33:38.447Z,100283.59
2023-03-31T00:36:10.738Z,100264.53
2023-03-31T00:38:42.046Z,100284.44
2023-03-31T00:41:12.810Z,100282.72
2023-03-31T00:43:43.665Z,100286.19
2023-03-31T00:46:19.106Z,100287.06
2023-03-31T00:48:58.482Z,100265.41
2023-03-31T00:51:32.304Z,100286.19
2023-03-31T00:54:06.162Z,100287.06
2023-03-31T00:56:40.678Z,100293.09
2023-03-31T00:59:14.755Z,100296.53
2023-03-31T01:01:48.752Z,100298.28
2023-03-31T01:04:24.824Z,100296.56
2023-03-31T01:07:05.998Z,100229.06
2023-03-31T01:09:39.884Z,100294.88
2023-03-31T01:12:13.562Z,100289.66
2023-03-31T01:14:44.642Z,100294.84
2023-03-31T01:17:19.966Z,100300.91
2023-03-31T01:20:12.229Z,100304.38
2023-03-31T01:23:18.113Z,100306.09
2023-03-31T01:26:33.145Z,100302.59
2023-03-31T01:29:12.763Z,100265.38
2023-03-31T01:32:18.089Z,100298.22
2023-03-31T01:35:39.123Z,100297.31
2023-03-31T01:38:44.746Z,100299.94
2023-03-31T01:41:38.435Z,100296.50
2023-03-31T01:44:20.361Z,100299.09
2023-03-31T01:46:56.732Z,100308.63
2023-03-31T01:49:34.427Z,100304.28
2023-03-31T01:52:11.044Z,100302.56
2023-03-31T01:54:47.338Z,100300.81
2023-03-31T01:57:26.122Z,100298.13
2023-03-31T02:00:01.849Z,100292.94
2023-03-31T02:02:39.718Z,100271.31
2023-03-31T02:05:16.875Z,100292.03
2023-03-31T02:07:52.670Z,100296.34
2023-03-31T02:10:25.130Z,100287.63
2023-03-31T02:12:59.224Z,100287.63
2023-03-31T02:15:35.898Z,100280.72
2023-03-31T02:18:12.246Z,100282.41
2023-03-31T02:20:44.840Z,100199.41
2023-03-31T02:23:17.785Z,100279.88
2023-03-31T02:25:52.347Z,100280.72
2023-03-31T02:28:26.398Z,100202.94
2023-03-31T02:31:08.694Z,100277.28
2023-03-31T02:33:39.417Z,100272.13
2023-03-31T02:36:10.753Z,100283.41
2023-03-31T02:38:45.702Z,100165.03
2023-03-31T02:41:16.618Z,100253.31
2023-03-31T02:43:48.931Z,100261.06
2023-03-31T02:46:19.483Z,100290.44
2023-03-31T02:48:53.548Z,100180.34
2023-03-31T02:51:57.697Z,100281.63
2023-03-31T02:55:00.884Z,100292.00
2023-03-31T02:58:00.201Z,100287.72
2023-03-31T03:00:42.454Z,100286.88
2023-03-31T03:03:29.649Z,100285.13
2023-03-31T03:06:10.165Z,100288.63
2023-03-31T03:08:56.277Z,100294.66
2023-03-31T03:11:34.915Z,100300.66
2023-03-31T03:14:12.073Z,100283.28
2023-03-31T03:16:48.075Z,100280.63
2023-03-31T03:19:23.521Z,100284.03
2023-03-31T03:21:54.045Z,100284.03
2023-03-31T03:24:25.187Z,100244.97
2023-03-31T03:26:56.116Z,100296.91
2023-03-31T03:29:27.976Z,100295.84
2023-03-31T03:32:00.185Z,100301.81
2023-03-31T03:34:30.632Z,100286.94
2023-03-31T03:37:01.137Z,100304.97
2023-03-31T03:39:31.616Z,100294.53
2023-03-31T03:42:02.145Z,100298.91
2023-03-31T03:44:32.660Z,100293.72
2023-03-31T03:47:04.759Z,100297.09
2023-03-31T03:49:35.322Z,100293.44
2023-03-31T03:52:06.009Z,100299.16
2023-03-31T03:54:36.724Z,100307.66
2023-03-31T03:57:08.234Z,100307.66
2023-03-31T03:59:38.772Z,100307.66
2023-03-31T04:02:11.173Z,100308.38
2023-03-31T04:04:41.800Z,100313.31
2023-03-31T04:07:12.377Z,100320.88
2023-03-31T04:09:42.975Z,100318.03
2023-03-31T04:12:13.484Z,100316.09
2023-03-31T04:14:44.135Z,100317.63
2023-03-31T04:17:16.643Z,100321.84
2023-03-31T04:19:52.053Z,100319.13
2023-03-31T04:22:22.638Z,100326.91
2023-03-31T04:24:53.645Z,100329.16
2023-03-31T04:27:28.288Z,100334.09
2023-03-31T04:29:58.766Z,100339.13
2023-03-31T04:32:33.852Z,100330.34
2023-03-31T04:35:05.849Z,100342.38
2023-03-31T04:37:39.684Z,100336.94
2023-03-31T04:40:12.044Z,100352.22
2023-03-31T04:42:42.598Z,100353.84
2023-03-31T04:45:14.184Z,100358.81
2023-03-31T04:47:46.426Z,100360.28
2023-03-31T04:50:17.260Z,100365.97
2023-03-31T04:52:47.939Z,100373.53
2023-03-31T04:55:18.619Z,100368.41
2023-03-31T04:57:49.148Z,100371.88
2023-03-31T05:00:20.596Z,100375.16
2023-03-31T05:02:53.107Z,100369.66
2023-03-31T05:05:23.929Z,100374.75
2023-03-31T05:07:55.074Z,100369.44
2023-03-31T05:10:25.642Z,100343.41
2023-03-31T05:12:56.148Z,100373.16
2023-03-31T05:15:26.960Z,100367.94
2023-03-31T05:18:01.246Z,100376.53
2023-03-31T05:20:31.858Z,100371.09
2023-03-31T05:23:02.924Z,100373.16
2023-03-31T05:25:33.574Z,100381.16
2023-03-31T05:28:05.002Z,100373.53
2023-03-31T05:30:35.476Z,100353.53
2023-03-31T05:33:07.652Z,100373.75
2023-03-31T05:35:38.450Z,100340.91
2023-03-31T05:38:08.958Z,100374.13
2023-03-31T05:40:39.478Z,100365.38
2023-03-31T05:43:10.092Z,100372.91
2023-03-31T05:45:40.632Z,100383.78
2023-03-31T05:48:13.164Z,100385.22
2023-03-31T05:50:43.910Z,100390.03
2023-03-31T05:53:14.445Z,100397.72
2023-03-31T05:55:44.924Z,100381.38
2023-03-31T05:58:15.613Z,100389.84
2023-03-31T06:00:46.640Z,100388.88
2023-03-31T06:03:18.891Z,100391.13
2023-03-31T06:05:54.997Z,100394.50
2023-03-31T06:08:25.837Z,100399.59
2023-03-31T06:10:56.501Z,100392.47
2023-03-31T06:13:27.040Z,100403.56
2023-03-31T06:15:58.796Z,100374.50
2023-03-31T06:18:31.832Z,100403.19
2023-03-31T06:21:02.659Z,100411.09
2023-03-31T06:23:33.293Z,100408.53
2023-03-31T06:26:05.800Z,100405.88
2023-03-31T06:28:36.651Z,100423.16
2023-03-31T06:31:08.688Z,100416.25
2023-03-31T06:33:42.059Z,100419.06
2023-03-31T06:36:13.675Z,100379.81
2023-03-31T06:38:44.524Z,100428.25
2023-03-31T06:41:17.587Z,100438.28
2023-03-31T06:43:48.247Z,100429.41
2023-03-31T06:46:18.864Z,100438.84
2023-03-31T06:48:52.014Z,100429.34
2023-03-31T06:51:22.898Z,100442.19
2023-03-31T06:53:53.540Z,100442.19
2023-03-31T06:56:24.130Z,100444.84
2023-03-31T06:58:54.535Z,100412.75
2023-03-31T07:01:25.246Z,100437.97
2023-03-31T07:03:57.507Z,100456.84
2023-03-31T07:06:28.092Z,100456.69
2023-03-31T07:09:05.335Z,100437.44
2023-03-31T07:11:35.896Z,100456.34
2023-03-31T07:14:07.137Z,100451.16
2023-03-31T07:16:38.111Z,100452.28
2023-03-31T07:19:11.890Z,100458.19
2023-03-31T07:21:42.371Z,100463.34
2023-03-31T07:24:15.997Z,100468.22
2023-03-31T07:26:46.663Z,100469.78
2023-03-31T07:29:17.236Z,100459.06
2023-03-31T07:31:50.387Z,100483.19
2023-03-31T07:34:22.571Z,100477.97
2023-03-31T07:36:54.525Z,100468.47
2023-03-31T07:39:25.172Z,100472.53
2023-03-31T07:41:55.689Z,100483.75
2023-03-31T07:44:26.428Z,100503.16
2023-03-31T07:46:57.010Z,100509.06
2023-03-31T07:49:29.193Z,100507.28
2023-03-31T07:51:59.867Z,100509.09
2023-03-31T07:54:30.824Z,100508.84
2023-03-31T07:57:05.196Z,100500.97
2023-03-31T07:59:35.743Z,100432.59
2023-03-31T08:02:06.449Z,100517.84
2023-03-31T08:04:39.066Z,100464.31
2023-03-31T08:07:10.407Z,100520.91
2023-03-31T08:09:41.446Z,100518.63
2023-03-31T08:12:12.068Z,100519.41
2023-03-31T08:14:42.460Z,100519.28
2023-03-31T08:17:16.062Z,100536.44
2023-03-31T08:19:48.326Z,100536.44
2023-03-31T08:22:21.029Z,100528.53
2023-03-31T08:24:51.636Z,100529.44
2023-03-31T08:27:27.483Z,100534.41
2023-03-31T08:30:05.473Z,100546.31
2023-03-31T08:32:38.956Z,100541.09
2023-03-31T08:35:12.054Z,100543.78
2023-03-31T08:37:44.957Z,100529.06
2023-03-31T08:40:23.015Z,100546.31
2023-03-31T08:42:55.742Z,100540.16
2023-03-31T08:45:32.928Z,100485.59
2023-03-31T08:48:08.776Z,100551.75
2023-03-31T08:50:50.253Z,100561.63
2023-03-31T08:53:26.662Z,100561.50
2023-03-31T08:56:02.333Z,100559.75
2023-03-31T08:58:42.289Z,100565.72
2023-03-31T09:01:25.407Z,100572.50
2023-03-31T09:04:19.066Z,100572.53
2023-03-31T09:06:58.411Z,100526.00
2023-03-31T09:09:39.549Z,100584.44
2023-03-31T09:12:21.526Z,100590.47
2023-03-31T09:15:03.296Z,100585.34
2023-03-31T09:17:37.202Z,100501.22
2023-03-31T09:20:14.908Z,100593.97
2023-03-31T09:22:56.006Z,100595.88
2023-03-31T09:25:30.041Z,100594.34
2023-03-31T09:30:54.271Z,100592.69
2023-03-31T09:33:32.964Z,100591.06
2023-03-31T09:36:04.777Z,100607.41
2023-03-31T09:38:37.318Z,100606.69
2023-03-31T09:41:08.300Z,100593.78
2023-03-31T09:43:44.840Z,100592.81
2023-03-31T09:46:22.981Z,100594.56
2023-03-31T09:49:02.067Z,100595.38
2023-03-31T09:51:45.284Z,100598.25
2023-03-31T09:54:30.389Z,100603.47
2023-03-31T09:57:06.043Z,100618.19
2023-03-31T09:59:43.282Z,100612.34
2023-03-31T10:02:42.738Z,100620.97
2023-03-31T10:05:32.979Z,100615.69
2023-03-31T10:08:28.745Z,100619.09
2023-03-31T10:11:12.208Z,100601.75
2023-03-31T10:13:50.174Z,100620.66
2023-03-31T10:16:34.295Z,100618.28
2023-03-31T10:19:26.291Z,100620.75
2023-03-31T10:22:00.992Z,100613.88
2023-03-31T10:24:40.432Z,100575.47
2023-03-31T10:27:23.675Z,100621.59
2023-03-31T10:30:00.061Z,100624.25
2023-03-31T10:32:32.695Z,100632.97
2023-03-31T10:35:08.930Z,100539.75
2023-03-31T10:37:43.127Z,100627.13
2023-03-31T10:40:23.415Z,100635.06
2023-03-31T10:43:04.531Z,100634.91
2023-03-31T10:45:40.702Z,100629.88
2023-03-31T10:48:27.185Z,100570.44
2023-03-31T10:51:01.378Z,100642.00
2023-03-31T10:53:31.957Z,100656.59
2023-03-31T10:56:19.088Z,100643.66
2023-03-31T10:59:11.020Z,100638.50
2023-03-31T11:01:53.562Z,100634.91
2023-03-31T11:04:56.916Z,100652.47
2023-03-31T11:07:49.826Z,100647.41
2023-03-31T11:10:39.902Z,100654.09
2023-03-31T11:13:13.235Z,100654.09
2023-03-31T11:15:53.519Z,100635.00
2023-03-31T11:18:44.136Z,100637.66
2023-03-31T11:21:27.234Z,100643.69
2023-03-31T11:24:10.642Z,100641.22
2023-03-31T11:26:51.151Z,100642.97
2023-03-31T11:29:34.763Z,100635.19
2023-03-31T11:32:31.210Z,100648.97
2023-03-31T11:35:15.256Z,100574.13
2023-03-31T11:38:02.620Z,100643.97
2023-03-31T11:40:43.143Z,100645.44
2023-03-31T11:43:20.018Z,100650.72
2023-03-31T11:45:56.632Z,100648.25
2023-03-31T11:48:38.987Z,100649.09
2023-03-31T11:51:17.488Z,100644.50
2023-03-31T11:53:52.045Z,100655.09
2023-03-31T11:56:24.246Z,100659.38
2023-03-31T11:58:57.278Z,100653.34
2023-03-31T12:01:37.077Z,100636.75
2023-03-31T12:04:26.318Z,100655.97
2023-03-31T12:07:04.690Z,100668.09
2023-03-31T12:09:41.249Z,100649.97
2023-03-31T12:12:19.287Z,100663.84
2023-03-31T12:14:57.245Z,100662.97
2023-03-31T12:17:30.502Z,100646.41
2023-03-31T12:20:07.830Z,100644.66
2023-03-31T12:22:42.456Z,100657.81
2023-03-31T12:25:15.803Z,100664.69
2023-03-31T12:27:50.368Z,100658.84
2023-03-31T12:30:32.277Z,100652.78
2023-03-31T12:33:10.507Z,100620.44
2023-03-31T12:35:58.856Z,100652.88
2023-03-31T12:38:39.722Z,100635.50
2023-03-31T12:41:17.284Z,100648.59
2023-03-31T12:44:11.537Z,100656.38
2023-03-31T12:47:01.204Z,100658.88
2023-03-31T12:50:01.867Z,100648.59
2023-03-31T12:52:45.670Z,100654.50
2023-03-31T12:55:47.082Z,100663.06
2023-03-31T12:58:42.079Z,100656.06
2023-03-31T13:01:18.556Z,100662.03
2023-03-31T13:03:58.093Z,100614.91
2023-03-31T13:06:54.693Z,100655.88
2023-03-31T13:09:47.901Z,100622.78
2023-03-31T13:12:21.166Z,100661.78
2023-03-31T13:14:56.096Z,100655.75
2023-03-31T13:17:36.506Z,100667.69
2023-03-31T13:20:31.152Z,100659.06
2023-03-31T13:23:07.338Z,100627.63
2023-03-31T13:25:57.815Z,100593.47
2023-03-31T13:28:45.586Z,100616.41
2023-03-31T13:31:18.246Z,100657.09
2023-03-31T13:33:58.520Z,100660.59
2023-03-31T13:37:00.134Z,100665.75
2023-03-31T13:40:10.480Z,100669.19
2023-03-31T13:43:28.930Z,100661.38
2023-03-31T13:46:24.341Z,100667.28
2023-03-31T13:49:04.410Z,100663.72
2023-03-31T13:51:49.672Z,100662.06
2023-03-31T13:54:55.400Z,100665.34
2023-03-31T13:58:29.898Z,100660.19
2023-03-31T14:01:37.504Z,100596.38
2023-03-31T14:04:23.904Z,100664.16
2023-03-31T14:07:00.375Z,100668.41
2023-03-31T14:09:36.245Z,100634.28
2023-03-31T14:12:24.958Z,100666.56
2023-03-31T14:14:59.166Z,100668.19
2023-03-31T14:17:43.861Z,100621.88
2023-03-31T14:20:46.720Z,100633.97
2023-03-31T14:23:34.262Z,100646.00
2023-03-31T14:26:43.332Z,100671.25
2023-03-31T14:29:22.750Z,100660.69
2023-03-31T14:32:10.196Z,100667.75
2023-03-31T14:35:05.410Z,100622.22
2023-03-31T14:37:38.973Z,100677.81
2023-03-31T14:40:21.823Z,100673.28
2023-03-31T14:42:53.828Z,100667.22
2023-03-31T14:45:27.906Z,100666.19
2023-03-31T14:48:02.583Z,100672.84
2023-03-31T14:50:45.089Z,100673.53
2023-03-31T14:53:33.622Z,100658.34
2023-03-31T14:56:25.017Z,100684.56
2023-03-31T14:59:16.294Z,100680.22
2023-03-31T15:01:52.967Z,100593.91
2023-03-31T15:04:39.293Z,100690.38
2023-03-31T15:08:04.251Z,100680.09
2023-03-31T15:14:20.867Z,100661.00
2023-03-31T15:17:17.113Z,100673.81
2023-03-31T15:19:50.300Z,100658.91
2023-03-31T15:22:32.461Z,100679.88
2023-03-31T15:25:04.997Z,100665.25
2023-03-31T15:28:43.474Z,100676.28
2023-03-31T15:31:42.783Z,100703.66
2023-03-31T15:34:31.299Z,100707.94
2023-03-31T15:37:20.291Z,100701.78
2023-03-31T15:39:52.105Z,100693.19
2023-03-31T15:43:01.492Z,100684.56
2023-03-31T15:45:59.041Z,100676.22
2023-03-31T15:48:49.020Z,100643.88
2023-03-31T15:51:37.579Z,100685.06
2023-03-31T15:55:05.106Z,100695.41
2023-03-31T15:58:49.375Z,100625.44
2023-03-31T16:02:15.456Z,100694.94
2023-03-31T16:04:55.067Z,100664.28
2023-03-31T16:08:02.176Z,100689.13
2023-03-31T16:10:39.509Z,100689.88
2023-03-31T16:16:15.665Z,100701.94
2023-03-31T16:19:03.264Z,100673.16
2023-03-31T16:21:51.820Z,100710.31
2023-03-31T16:24:34.126Z,100711.75
2023-03-31T16:27:12.885Z,100695.63
2023-03-31T16:29:44.822Z,100621.84
2023-03-31T16:32:20.553Z,100681.28
2023-03-31T16:35:01.473Z,100688.75
2023-03-31T16:37:44.591Z,100702.25
2023-03-31T16:40:18.261Z,100711.00
2023-03-31T16:42:50.570Z,100712.78
2023-03-31T16:45:27.065Z,100712.00
2023-03-31T16:48:16.080Z,100715.44
2023-03-31T16:50:56.290Z,100714.75
2023-03-31T16:53:34.935Z,100708.72
2023-03-31T16:56:08.383Z,100693.66
2023-03-31T16:58:40.082Z,100694.09
2023-03-31T17:01:15.767Z,100702.50
2023-03-31T17:03:46.964Z,100706.81
2023-03-31T17:06:21.869Z,100707.53
2023-03-31T17:09:02.397Z,100550.22
2023-03-31T17:11:35.286Z,100717.63
2023-03-31T17:14:12.549Z,100721.03
2023-03-31T17:16:48.714Z,100722.78
2023-03-31T17:19:26.201Z,100713.22
2023-03-31T17:22:06.193Z,100719.03
2023-03-31T17:24:41.418Z,100744.00
2023-03-31T17:27:14.862Z,100706.78
2023-03-31T17:29:48.149Z,100724.28
2023-03-31T17:32:18.776Z,100710.59
2023-03-31T17:34:50.352Z,100713.91
2023-03-31T17:37:30.961Z,100734.69
2023-03-31T17:40:01.435Z,100732.91
2023-03-31T17:42:35.591Z,100684.19
2023-03-31T17:45:24.401Z,100661.19
2023-03-31T17:47:57.814Z,100733.03
2023-03-31T17:50:37.573Z,100707.81
2023-03-31T17:53:23.166Z,100722.66
2023-03-31T17:56:12.818Z,100723.47
2023-03-31T17:58:49.616Z,100724.66
2023-03-31T18:02:26.292Z,100710.06
2023-03-31T18:12:03.699Z,100717.81
2023-03-31T18:19:20.100Z,100733.28
2023-03-31T18:21:58.825Z,100726.03
2023-03-31T18:25:39.175Z,100728.16
2023-03-31T18:29:16.663Z,100731.19
2023-03-31T18:32:19.300Z,100731.28
2023-03-31T18:34:58.524Z,100724.06
2023-03-31T18:41:15.236Z,100760.91
2023-03-31T18:44:51.336Z,100729.41
2023-03-31T18:47:47.342Z,100729.41
2023-03-31T18:50:20.786Z,100748.19
2023-03-31T18:53:19.883Z,100747.91
2023-03-31T18:57:01.807Z,100747.03
2023-03-31T19:00:14.168Z,100751.41
2023-03-31T19:02:46.810Z,100749.78
2023-03-31T19:05:17.580Z,100739.44
2023-03-31T19:07:48.267Z,100740.09
2023-03-31T19:10:24.899Z,100758.25
2023-03-31T19:12:56.569Z,100759.09
2023-03-31T19:15:30.100Z,100753.19
2023-03-31T19:18:06.792Z,100764.34
2023-03-31T19:20:40.330Z,100766.91
2023-03-31T19:23:11.140Z,100765.19
2023-03-31T19:25:41.897Z,100765.06
2023-03-31T19:28:17.269Z,100759.94
2023-03-31T19:30:50.196Z,100763.28
2023-03-31T19:33:23.090Z,100776.94
2023-03-31T19:35:54.454Z,100782.06
2023-03-31T19:38:32.774Z,100768.41
2023-03-31T19:41:04.958Z,100744.19
2023-03-31T19:43:35.863Z,100771.69
2023-03-31T19:46:12.107Z,100770.06
2023-03-31T19:48:48.971Z,100773.44
2023-03-31T19:51:19.909Z,100771.81
2023-03-31T19:53:51.212Z,100783.00
2023-03-31T19:56:22.329Z,100789.06
2023-03-31T19:58:53.003Z,100785.56
2023-03-31T20:01:25.541Z,100783.69
2023-03-31T20:03:57.796Z,100783.00
2023-03-31T20:06:32.614Z,100773.03
2023-03-31T20:09:04.265Z,100790.69
2023-03-31T20:11:34.846Z,100794.03
2023-03-31T20:14:07.085Z,100784.63
2023-03-31T20:16:37.635Z,100798.31
2023-03-31T20:19:09.950Z,100794.75
2023-03-31T20:21:41.736Z,100797.94
2023-03-31T20:24:17.924Z,100792.19
2023-03-31T20:26:48.913Z,100770.78
2023-03-31T20:29:19.792Z,100786.94
2023-03-31T20:31:51.085Z,100797.19
2023-03-31T20:34:23.585Z,100796.63
2023-03-31T20:36:54.088Z,100795.00
2023-03-31T20:39:24.636Z,100798.41
2023-03-31T20:41:56.037Z,100802.69
2023-03-31T20:44:26.506Z,100811.31
2023-03-31T20:46:59.808Z,100824.97
2023-03-31T20:49:31.998Z,100811.06
2023-03-31T20:52:02.417Z,100838.84
2023-03-31T20:54:32.889Z,100838.94
2023-03-31T20:57:06.491Z,100836.47
2023-03-31T20:59:37.007Z,100842.34
2023-03-31T21:02:07.469Z,100837.25
2023-03-31T21:04:39.541Z,100851.97
2023-03-31T21:07:18.203Z,100853.69
2023-03-31T21:09:48.817Z,100850.38
2023-03-31T21:12:20.328Z,100854.97
2023-03-31T21:14:50.893Z,100847.38
2023-03-31T21:17:21.355Z,100864.84
2023-03-31T21:19:53.627Z,100860.81
2023-03-31T21:22:24.192Z,100838.66
2023-03-31T21:24:56.086Z,100861.91
2023-03-31T21:27:26.615Z,100860.97
2023-03-31T21:29:57.089Z,100863.38
2023-03-31T21:32:30.640Z,100860.03
2023-03-31T21:35:02.725Z,100874.47
2023-03-31T21:37:39.284Z,100871.06
2023-03-31T21:40:11.119Z,100872.84
2023-03-31T21:42:42.058Z,100897.75
2023-03-31T21:45:13.538Z,100897.00
2023-03-31T21:47:45.369Z,100903.94
2023-03-31T21:50:21.405Z,100888.72
2023-03-31T21:52:53.939Z,100890.47
2023-03-31T21:55:24.632Z,100888.97
2023-03-31T21:57:56.227Z,100883.03
2023-03-31T22:00:27.174Z,100889.78
2023-03-31T22:05:35.940Z,100907.09
2023-03-31T22:08:07.074Z,100920.00
2023-03-31T22:10:37.912Z,100903.41
2023-03-31T22:13:08.418Z,100913.47
2023-03-31T22:15:38.989Z,100915.47
2023-03-31T22:18:09.585Z,100920.97
2023-03-31T22:20:41.750Z,100919.22
2023-03-31T22:23:12.350Z,100930.50
2023-03-31T22:25:42.850Z,100876.19
2023-03-31T22:28:13.475Z,100936.72
2023-03-31T22:30:44.858Z,100938.13
2023-03-31T22:33:15.469Z,100952.66
2023-03-31T22:35:47.670Z,100950.03
2023-03-31T22:38:18.197Z,100950.13
2023-03-31T22:40:48.880Z,100945.75
2023-03-31T22:43:19.649Z,100948.50
2023-03-31T22:45:50.222Z,100971.16
2023-03-31T22:48:23.895Z,100947.94
2023-03-31T22:50:56.126Z,100867.81
2023-03-31T22:53:26.678Z,100967.78
2023-03-31T22:55:58.829Z,100969.53
2023-03-31T22:58:29.275Z,100961.03
2023-03-31T23:01:00.625Z,100962.16
2023-03-31T23:03:31.430Z,100975.03
2023-03-31T23:06:07.578Z,100976.88
2023-03-31T23:08:38.939Z,100984.00
2023-03-31T23:11:12.758Z,100948.19
2023-03-31T23:13:57.700Z,100982.63
2023-03-31T23:16:29.026Z,100999.44
2023-03-31T23:19:01.170Z,100981.22
2023-03-31T23:21:33.435Z,101003.88
2023-03-31T23:24:05.292Z,101011.66
2023-03-31T23:26:37.373Z,101013.28
2023-03-31T23:29:08.505Z,101002.25
2023-03-31T23:31:39.036Z,101010.91
2023-03-31T23:34:13.702Z,101005.63
2023-03-31T23:36:46.269Z,101012.53
2023-03-31T23:39:17.022Z,101017.56
2023-03-31T23:41:47.528Z,101025.69
2023-03-31T23:44:17.971Z,101025.13
2023-03-31T23:46:51.551Z,100950.41
2023-03-31T23:49:22.432Z,101019.47
2023-03-31T23:51:54.745Z,101036.22
2023-03-31T23:54:25.436Z,101034.69
2023-03-31T23:56:56.055Z,101037.25
2023-03-31T23:59:26.723Z,101041.56
